MCY weather

Sunshine Coast Airport
Maroochydore, Queensland, Australia

Public forecast

Using degrees Celsius for public forecast. Weather courtesy of forecast.io.

METAR (pilot weather report)

Closest report is Brisbane International Airport, 46.9 nm (86.9 km) S. Retrieved 2017/06/28 18:30 UTC (1 minute ago):

YBBN 281830Z 26003KT 9999 FEW020 BKN220 14/13 Q1021 NOSIG

TAF (pilot weather forecast)

Closest forecast is Brisbane International Airport, 46.9 nm (86.9 km) S. Retrieved 2017/06/28 18:38 UTC (0 seconds ago):

TAF YBBN 281727Z 2818/2924 32005KT 9999 SCT030 FM290200 02010KT 9999 SCT045 FM291000 35005KT 9999 SCT040 FM291400 26005KT 9999 -RA SCT040 BKN090 TEMPO 2918/2924 4000 RA BKN015